sensor_id;sensor_type;location;lat;lon;timestamp;pressure;altitude;pressure_sealevel;temperature;humidity
61628;BME280;55193;52.102;5.242;2022-07-29T00:00:44;101740.0;;;18.62;63.62
61628;BME280;55193;52.102;5.242;2022-07-29T00:02:32;101740.0;;;18.56;63.89
61628;BME280;55193;52.102;5.242;2022-07-29T00:04:19;101738.0;;;18.5;64.25
61628;BME280;55193;52.102;5.242;2022-07-29T00:06:06;101742.0;;;18.52;64.33
61628;BME280;55193;52.102;5.242;2022-07-29T00:07:53;101741.0;;;18.45;64.35
61628;BME280;55193;52.102;5.242;2022-07-29T00:09:40;101738.0;;;18.41;64.34
61628;BME280;55193;52.102;5.242;2022-07-29T00:13:15;101733.0;;;18.27;64.78
61628;BME280;55193;52.102;5.242;2022-07-29T00:15:01;101734.0;;;18.3;64.7
61628;BME280;55193;52.102;5.242;2022-07-29T00:16:48;101728.0;;;18.34;64.89
61628;BME280;55193;52.102;5.242;2022-07-29T00:18:34;101724.0;;;18.32;64.83
61628;BME280;55193;52.102;5.242;2022-07-29T00:20:20;101718.0;;;18.27;64.77
61628;BME280;55193;52.102;5.242;2022-07-29T00:22:07;101724.0;;;18.25;65.2
61628;BME280;55193;52.102;5.242;2022-07-29T00:25:40;101723.0;;;18.28;65.02
61628;BME280;55193;52.102;5.242;2022-07-29T00:27:26;101722.0;;;18.3;64.92
61628;BME280;55193;52.102;5.242;2022-07-29T00:29:12;101718.0;;;18.2;65.31
61628;BME280;55193;52.102;5.242;2022-07-29T00:30:58;101712.0;;;18.16;65.5
61628;BME280;55193;52.102;5.242;2022-07-29T00:32:44;101712.0;;;18.25;65.48
61628;BME280;55193;52.102;5.242;2022-07-29T00:37:33;101705.0;;;18.12;65.52
61628;BME280;55193;52.102;5.242;2022-07-29T00:39:19;101705.0;;;18.11;65.95
61628;BME280;55193;52.102;5.242;2022-07-29T00:41:05;101701.0;;;18.07;65.78
61628;BME280;55193;52.102;5.242;2022-07-29T00:44:39;101700.0;;;18.03;65.91
61628;BME280;55193;52.102;5.242;2022-07-29T00:46:26;101699.0;;;18.03;65.89
61628;BME280;55193;52.102;5.242;2022-07-29T00:48:12;101697.0;;;18.02;65.97
61628;BME280;55193;52.102;5.242;2022-07-29T00:50:00;101695.0;;;17.93;66.19
61628;BME280;55193;52.102;5.242;2022-07-29T00:51:46;101694.0;;;18.0;66.22
61628;BME280;55193;52.102;5.242;2022-07-29T00:53:35;101693.0;;;18.03;65.87
61628;BME280;55193;52.102;5.242;2022-07-29T00:57:10;101692.0;;;18.0;65.97
61628;BME280;55193;52.102;5.242;2022-07-29T00:58:57;101689.0;;;18.0;66.28
61628;BME280;55193;52.102;5.242;2022-07-29T01:00:44;101687.0;;;18.0;66.19
61628;BME280;55193;52.102;5.242;2022-07-29T01:02:31;101686.0;;;17.97;66.39
61628;BME280;55193;52.102;5.242;2022-07-29T01:04:18;101685.0;;;17.93;66.27
61628;BME280;55193;52.102;5.242;2022-07-29T01:06:05;101682.0;;;18.0;66.3
61628;BME280;55193;52.102;5.242;2022-07-29T01:09:45;101678.0;;;17.91;66.45
61628;BME280;55193;52.102;5.242;2022-07-29T01:11:32;101682.0;;;17.89;66.67
61628;BME280;55193;52.102;5.242;2022-07-29T01:13:20;101682.0;;;17.95;66.58
61628;BME280;55193;52.102;5.242;2022-07-29T01:15:08;101681.0;;;17.84;66.7
61628;BME280;55193;52.102;5.242;2022-07-29T01:17:00;101678.0;;;17.84;66.81
61628;BME280;55193;52.102;5.242;2022-07-29T01:19:03;101680.0;;;17.73;66.95
61628;BME280;55193;52.102;5.242;2022-07-29T01:21:24;101675.0;;;17.84;66.72
61628;BME280;55193;52.102;5.242;2022-07-29T01:24:26;101672.0;;;17.75;67.05
61628;BME280;55193;52.102;5.242;2022-07-29T01:26:52;101677.0;;;17.77;67.08
61628;BME280;55193;52.102;5.242;2022-07-29T01:28:52;101673.0;;;17.78;67.05
61628;BME280;55193;52.102;5.242;2022-07-29T01:30:47;101673.0;;;17.82;66.7
61628;BME280;55193;52.102;5.242;2022-07-29T01:32:38;101678.0;;;17.79;66.72
61628;BME280;55193;52.102;5.242;2022-07-29T01:34:29;101680.0;;;17.71;66.85
61628;BME280;55193;52.102;5.242;2022-07-29T01:36:24;101677.0;;;17.66;67.3
61628;BME280;55193;52.102;5.242;2022-07-29T01:38:17;101680.0;;;17.7;67.06
61628;BME280;55193;52.102;5.242;2022-07-29T01:40:11;101681.0;;;17.72;67.16
61628;BME280;55193;52.102;5.242;2022-07-29T01:42:12;101682.0;;;17.68;67.09
61628;BME280;55193;52.102;5.242;2022-07-29T01:44:05;101680.0;;;17.64;67.2
61628;BME280;55193;52.102;5.242;2022-07-29T01:46:02;101680.0;;;17.59;67.31
61628;BME280;55193;52.102;5.242;2022-07-29T01:47:56;101680.0;;;17.56;67.31
61628;BME280;55193;52.102;5.242;2022-07-29T01:51:47;101678.0;;;17.53;67.41
61628;BME280;55193;52.102;5.242;2022-07-29T01:53:41;101680.0;;;17.57;67.48
61628;BME280;55193;52.102;5.242;2022-07-29T01:55:40;101681.0;;;17.55;67.39
61628;BME280;55193;52.102;5.242;2022-07-29T01:57:31;101677.0;;;17.5;67.7
61628;BME280;55193;52.102;5.242;2022-07-29T01:59:20;101681.0;;;17.59;67.52
61628;BME280;55193;52.102;5.242;2022-07-29T02:01:08;101681.0;;;17.5;67.78
61628;BME280;55193;52.102;5.242;2022-07-29T02:02:57;101678.0;;;17.46;68.08
61628;BME280;55193;52.102;5.242;2022-07-29T02:04:49;101677.0;;;17.54;67.7
61628;BME280;55193;52.102;5.242;2022-07-29T02:08:28;101675.0;;;17.52;67.48
61628;BME280;55193;52.102;5.242;2022-07-29T02:10:18;101675.0;;;17.52;68.19
61628;BME280;55193;52.102;5.242;2022-07-29T02:12:09;101674.0;;;17.47;67.77
61628;BME280;55193;52.102;5.242;2022-07-29T02:14:00;101675.0;;;17.61;67.41
61628;BME280;55193;52.102;5.242;2022-07-29T02:15:48;101676.0;;;17.57;67.91
61628;BME280;55193;52.102;5.242;2022-07-29T02:17:40;101673.0;;;17.5;68.12
61628;BME280;55193;52.102;5.242;2022-07-29T02:19:31;101675.0;;;17.47;68.44
61628;BME280;55193;52.102;5.242;2022-07-29T02:23:10;101673.0;;;17.39;68.48
61628;BME280;55193;52.102;5.242;2022-07-29T02:24:59;101668.0;;;17.43;68.66
61628;BME280;55193;52.102;5.242;2022-07-29T02:26:49;101670.0;;;17.41;68.63
61628;BME280;55193;52.102;5.242;2022-07-29T02:28:36;101671.0;;;17.43;68.91
61628;BME280;55193;52.102;5.242;2022-07-29T02:30:23;101670.0;;;17.37;68.83
61628;BME280;55193;52.102;5.242;2022-07-29T02:32:13;101677.0;;;17.39;68.86
61628;BME280;55193;52.102;5.242;2022-07-29T02:34:03;101676.0;;;17.38;68.91
61628;BME280;55193;52.102;5.242;2022-07-29T02:37:41;101671.0;;;17.36;68.77
61628;BME280;55193;52.102;5.242;2022-07-29T02:39:29;101673.0;;;17.34;69.02
61628;BME280;55193;52.102;5.242;2022-07-29T02:41:20;101669.0;;;17.36;68.91
61628;BME280;55193;52.102;5.242;2022-07-29T02:43:09;101665.0;;;17.36;69.2
61628;BME280;55193;52.102;5.242;2022-07-29T02:44:57;101663.0;;;17.39;68.94
61628;BME280;55193;52.102;5.242;2022-07-29T02:46:48;101663.0;;;17.37;69.03
61628;BME280;55193;52.102;5.242;2022-07-29T02:48:38;101669.0;;;17.38;69.12
61628;BME280;55193;52.102;5.242;2022-07-29T02:52:24;101666.0;;;17.39;68.74
61628;BME280;55193;52.102;5.242;2022-07-29T02:54:22;101663.0;;;17.46;68.59
61628;BME280;55193;52.102;5.242;2022-07-29T02:56:11;101665.0;;;17.36;69.27
61628;BME280;55193;52.102;5.242;2022-07-29T02:58:02;101667.0;;;17.41;69.11
61628;BME280;55193;52.102;5.242;2022-07-29T02:59:53;101666.0;;;17.39;69.06
61628;BME280;55193;52.102;5.242;2022-07-29T03:01:43;101660.0;;;17.28;69.24
61628;BME280;55193;52.102;5.242;2022-07-29T03:03:35;101661.0;;;17.28;69.53
61628;BME280;55193;52.102;5.242;2022-07-29T03:05:22;101659.0;;;17.34;69.41
61628;BME280;55193;52.102;5.242;2022-07-29T03:08:59;101653.0;;;17.28;69.31
61628;BME280;55193;52.102;5.242;2022-07-29T03:10:48;101661.0;;;17.25;69.38
61628;BME280;55193;52.102;5.242;2022-07-29T03:12:35;101658.0;;;17.34;69.23
61628;BME280;55193;52.102;5.242;2022-07-29T03:14:23;101662.0;;;17.27;69.37
61628;BME280;55193;52.102;5.242;2022-07-29T03:16:10;101657.0;;;17.25;69.44
61628;BME280;55193;52.102;5.242;2022-07-29T03:17:59;101649.0;;;17.27;69.05
61628;BME280;55193;52.102;5.242;2022-07-29T03:21:32;101647.0;;;17.2;69.27
61628;BME280;55193;52.102;5.242;2022-07-29T03:23:22;101650.0;;;17.34;69.05
61628;BME280;55193;52.102;5.242;2022-07-29T03:25:11;101643.0;;;17.22;69.3
61628;BME280;55193;52.102;5.242;2022-07-29T03:27:00;101646.0;;;17.34;69.33
61628;BME280;55193;52.102;5.242;2022-07-29T03:28:46;101643.0;;;17.3;69.08
61628;BME280;55193;52.102;5.242;2022-07-29T03:30:33;101641.0;;;17.27;69.37
61628;BME280;55193;52.102;5.242;2022-07-29T03:34:06;101637.0;;;17.18;69.12
61628;BME280;55193;52.102;5.242;2022-07-29T03:35:52;101642.0;;;17.14;69.8
61628;BME280;55193;52.102;5.242;2022-07-29T03:37:38;101635.0;;;17.16;70.24
61628;BME280;55193;52.102;5.242;2022-07-29T03:39:27;101634.0;;;17.13;69.72
61628;BME280;55193;52.102;5.242;2022-07-29T03:41:18;101634.0;;;17.2;69.53
61628;BME280;55193;52.102;5.242;2022-07-29T03:43:08;101635.0;;;17.16;69.56
61628;BME280;55193;52.102;5.242;2022-07-29T03:46:46;101634.0;;;17.18;69.56
61628;BME280;55193;52.102;5.242;2022-07-29T03:48:37;101635.0;;;17.25;69.66
61628;BME280;55193;52.102;5.242;2022-07-29T03:50:26;101628.0;;;17.23;69.66
61628;BME280;55193;52.102;5.242;2022-07-29T03:52:13;101634.0;;;17.25;69.33
61628;BME280;55193;52.102;5.242;2022-07-29T03:54:00;101630.0;;;17.36;69.27
61628;BME280;55193;52.102;5.242;2022-07-29T03:55:52;101634.0;;;17.27;69.0
61628;BME280;55193;52.102;5.242;2022-07-29T03:57:40;101632.0;;;17.27;69.09
61628;BME280;55193;52.102;5.242;2022-07-29T04:01:19;101641.0;;;17.27;69.2
61628;BME280;55193;52.102;5.242;2022-07-29T04:03:07;101635.0;;;17.36;68.86
61628;BME280;55193;52.102;5.242;2022-07-29T04:04:55;101631.0;;;17.27;69.3
61628;BME280;55193;52.102;5.242;2022-07-29T04:06:43;101630.0;;;17.25;69.22
61628;BME280;55193;52.102;5.242;2022-07-29T04:08:31;101633.0;;;17.31;69.11
61628;BME280;55193;52.102;5.242;2022-07-29T04:10:19;101632.0;;;17.18;69.16
61628;BME280;55193;52.102;5.242;2022-07-29T04:13:52;101632.0;;;17.2;69.41
61628;BME280;55193;52.102;5.242;2022-07-29T04:15:38;101630.0;;;17.2;69.24
61628;BME280;55193;52.102;5.242;2022-07-29T04:17:25;101627.0;;;17.18;69.31
61628;BME280;55193;52.102;5.242;2022-07-29T04:19:11;101622.0;;;17.16;69.62
61628;BME280;55193;52.102;5.242;2022-07-29T04:21:00;101625.0;;;17.23;69.33
61628;BME280;55193;52.102;5.242;2022-07-29T04:22:47;101628.0;;;17.18;69.31
61628;BME280;55193;52.102;5.242;2022-07-29T04:26:20;101626.0;;;17.14;69.52
61628;BME280;55193;52.102;5.242;2022-07-29T04:28:09;101620.0;;;17.2;69.27
61628;BME280;55193;52.102;5.242;2022-07-29T04:29:56;101621.0;;;17.29;68.97
61628;BME280;55193;52.102;5.242;2022-07-29T04:31:43;101623.0;;;17.31;68.99
61628;BME280;55193;52.102;5.242;2022-07-29T04:33:29;101618.0;;;17.31;69.11
61628;BME280;55193;52.102;5.242;2022-07-29T04:35:15;101620.0;;;17.3;68.97
61628;BME280;55193;52.102;5.242;2022-07-29T04:38:49;101623.0;;;17.27;69.33
61628;BME280;55193;52.102;5.242;2022-07-29T04:40:36;101624.0;;;17.27;69.27
61628;BME280;55193;52.102;5.242;2022-07-29T04:42:22;101627.0;;;17.28;69.11
61628;BME280;55193;52.102;5.242;2022-07-29T04:44:08;101630.0;;;17.32;68.88
61628;BME280;55193;52.102;5.242;2022-07-29T04:45:55;101634.0;;;17.36;68.92
61628;BME280;55193;52.102;5.242;2022-07-29T04:49:28;101630.0;;;17.34;69.11
61628;BME280;55193;52.102;5.242;2022-07-29T04:51:14;101632.0;;;17.36;68.98
61628;BME280;55193;52.102;5.242;2022-07-29T04:53:02;101642.0;;;17.34;69.09
61628;BME280;55193;52.102;5.242;2022-07-29T04:54:48;101641.0;;;17.39;69.08
61628;BME280;55193;52.102;5.242;2022-07-29T04:56:35;101639.0;;;17.27;69.22
61628;BME280;55193;52.102;5.242;2022-07-29T04:58:23;101637.0;;;17.37;69.02
61628;BME280;55193;52.102;5.242;2022-07-29T05:01:57;101642.0;;;17.45;68.53
61628;BME280;55193;52.102;5.242;2022-07-29T05:03:44;101638.0;;;17.36;68.87
61628;BME280;55193;52.102;5.242;2022-07-29T05:05:30;101635.0;;;17.41;68.84
61628;BME280;55193;52.102;5.242;2022-07-29T05:07:17;101634.0;;;17.45;68.61
61628;BME280;55193;52.102;5.242;2022-07-29T05:09:03;101636.0;;;17.52;68.34
61628;BME280;55193;52.102;5.242;2022-07-29T05:10:51;101632.0;;;17.46;68.88
61628;BME280;55193;52.102;5.242;2022-07-29T05:14:23;101637.0;;;17.52;68.63
61628;BME280;55193;52.102;5.242;2022-07-29T05:16:10;101635.0;;;17.5;68.7
61628;BME280;55193;52.102;5.242;2022-07-29T05:17:56;101632.0;;;17.45;68.74
61628;BME280;55193;52.102;5.242;2022-07-29T05:19:42;101632.0;;;17.52;68.88
61628;BME280;55193;52.102;5.242;2022-07-29T05:21:30;101630.0;;;17.57;68.69
61628;BME280;55193;52.102;5.242;2022-07-29T05:25:04;101630.0;;;17.55;68.77
61628;BME280;55193;52.102;5.242;2022-07-29T05:26:50;101630.0;;;17.63;68.48
61628;BME280;55193;52.102;5.242;2022-07-29T05:28:36;101635.0;;;17.55;68.8
61628;BME280;55193;52.102;5.242;2022-07-29T05:30:24;101641.0;;;17.64;68.78
61628;BME280;55193;52.102;5.242;2022-07-29T05:32:11;101642.0;;;17.5;68.84
61628;BME280;55193;52.102;5.242;2022-07-29T05:33:58;101640.0;;;17.59;69.11
61628;BME280;55193;52.102;5.242;2022-07-29T05:37:30;101643.0;;;17.63;69.14
61628;BME280;55193;52.102;5.242;2022-07-29T05:39:17;101643.0;;;17.63;68.47
61628;BME280;55193;52.102;5.242;2022-07-29T05:41:04;101642.0;;;17.59;68.36
61628;BME280;55193;52.102;5.242;2022-07-29T05:42:51;101645.0;;;17.68;68.81
61628;BME280;55193;52.102;5.242;2022-07-29T05:44:38;101649.0;;;17.72;69.17
61628;BME280;55193;52.102;5.242;2022-07-29T05:46:25;101649.0;;;17.73;68.91
61628;BME280;55193;52.102;5.242;2022-07-29T05:49:58;101661.0;;;17.72;68.27
61628;BME280;55193;52.102;5.242;2022-07-29T05:51:44;101657.0;;;17.75;68.58
61628;BME280;55193;52.102;5.242;2022-07-29T05:53:30;101664.0;;;17.77;68.59
61628;BME280;55193;52.102;5.242;2022-07-29T05:55:18;101660.0;;;17.81;68.58
61628;BME280;55193;52.102;5.242;2022-07-29T05:57:05;101660.0;;;17.88;68.14
61628;BME280;55193;52.102;5.242;2022-07-29T06:00:40;101660.0;;;17.91;68.36
61628;BME280;55193;52.102;5.242;2022-07-29T06:02:26;101658.0;;;18.03;67.77
61628;BME280;55193;52.102;5.242;2022-07-29T06:04:12;101663.0;;;18.02;67.95
61628;BME280;55193;52.102;5.242;2022-07-29T06:05:59;101658.0;;;18.0;68.17
61628;BME280;55193;52.102;5.242;2022-07-29T06:07:46;101655.0;;;18.02;67.66
61628;BME280;55193;52.102;5.242;2022-07-29T06:09:32;101653.0;;;18.02;67.62
61628;BME280;55193;52.102;5.242;2022-07-29T06:13:05;101650.0;;;17.96;68.16
61628;BME280;55193;52.102;5.242;2022-07-29T06:14:51;101655.0;;;18.0;67.67
61628;BME280;55193;52.102;5.242;2022-07-29T06:16:38;101655.0;;;17.91;68.3
61628;BME280;55193;52.102;5.242;2022-07-29T06:18:24;101655.0;;;17.93;68.25
61628;BME280;55193;52.102;5.242;2022-07-29T06:20:10;101656.0;;;18.0;67.92
61628;BME280;55193;52.102;5.242;2022-07-29T06:21:57;101660.0;;;18.0;68.3
61628;BME280;55193;52.102;5.242;2022-07-29T06:25:34;101664.0;;;18.11;67.91
61628;BME280;55193;52.102;5.242;2022-07-29T06:27:20;101660.0;;;18.09;68.38
61628;BME280;55193;52.102;5.242;2022-07-29T06:29:07;101663.0;;;18.18;68.84
61628;BME280;55193;52.102;5.242;2022-07-29T06:30:55;101667.0;;;18.27;67.66
61628;BME280;55193;52.102;5.242;2022-07-29T06:32:42;101673.0;;;18.41;67.52
61628;BME280;55193;52.102;5.242;2022-07-29T06:36:14;101672.0;;;18.5;66.83
61628;BME280;55193;52.102;5.242;2022-07-29T06:38:01;101676.0;;;18.54;66.41
61628;BME280;55193;52.102;5.242;2022-07-29T06:41:00;101683.0;;;18.61;65.84
61628;BME280;55193;52.102;5.242;2022-07-29T06:42:46;101688.0;;;18.77;65.44
61628;BME280;55193;52.102;5.242;2022-07-29T06:44:33;101687.0;;;18.86;64.97
61628;BME280;55193;52.102;5.242;2022-07-29T06:46:21;101690.0;;;18.93;65.08
61628;BME280;55193;52.102;5.242;2022-07-29T06:48:08;101691.0;;;18.96;65.02
61628;BME280;55193;52.102;5.242;2022-07-29T06:49:55;101691.0;;;19.05;64.41
61628;BME280;55193;52.102;5.242;2022-07-29T06:51:41;101694.0;;;19.2;64.14
61628;BME280;55193;52.102;5.242;2022-07-29T06:53:28;101702.0;;;19.2;63.16
61628;BME280;55193;52.102;5.242;2022-07-29T06:57:02;101702.0;;;19.23;63.36
61628;BME280;55193;52.102;5.242;2022-07-29T06:58:48;101711.0;;;19.36;63.95
61628;BME280;55193;52.102;5.242;2022-07-29T07:00:34;101702.0;;;19.09;62.97
61628;BME280;55193;52.102;5.242;2022-07-29T07:02:21;101702.0;;;19.09;62.86
61628;BME280;55193;52.102;5.242;2022-07-29T07:04:09;101699.0;;;19.11;62.9
61628;BME280;55193;52.102;5.242;2022-07-29T07:05:56;101700.0;;;19.07;63.72
61628;BME280;55193;52.102;5.242;2022-07-29T07:09:29;101705.0;;;19.03;63.11
61628;BME280;55193;52.102;5.242;2022-07-29T07:11:15;101705.0;;;18.95;63.86
61628;BME280;55193;52.102;5.242;2022-07-29T07:13:02;101705.0;;;19.02;63.76
61628;BME280;55193;52.102;5.242;2022-07-29T07:14:49;101707.0;;;19.14;63.42
61628;BME280;55193;52.102;5.242;2022-07-29T07:16:35;101702.0;;;19.13;63.32
61628;BME280;55193;52.102;5.242;2022-07-29T07:20:08;101706.0;;;19.11;63.59
61628;BME280;55193;52.102;5.242;2022-07-29T07:21:55;101707.0;;;18.98;63.77
61628;BME280;55193;52.102;5.242;2022-07-29T07:23:42;101701.0;;;18.97;64.36
61628;BME280;55193;52.102;5.242;2022-07-29T07:25:28;101701.0;;;19.0;63.42
61628;BME280;55193;52.102;5.242;2022-07-29T07:27:14;101699.0;;;18.98;64.95
61628;BME280;55193;52.102;5.242;2022-07-29T07:29:01;101705.0;;;19.0;63.95
61628;BME280;55193;52.102;5.242;2022-07-29T07:32:34;101711.0;;;19.06;64.25
61628;BME280;55193;52.102;5.242;2022-07-29T07:34:21;101712.0;;;19.2;63.51
61628;BME280;55193;52.102;5.242;2022-07-29T07:36:07;101714.0;;;19.36;62.98
61628;BME280;55193;52.102;5.242;2022-07-29T07:37:54;101705.0;;;19.5;62.2
61628;BME280;55193;52.102;5.242;2022-07-29T07:39:41;101695.0;;;19.52;62.99
61628;BME280;55193;52.102;5.242;2022-07-29T07:41:28;101700.0;;;19.7;62.67
61628;BME280;55193;52.102;5.242;2022-07-29T07:45:00;101696.0;;;19.73;62.14
61628;BME280;55193;52.102;5.242;2022-07-29T07:46:46;101694.0;;;19.71;61.97
61628;BME280;55193;52.102;5.242;2022-07-29T07:48:34;101687.0;;;19.7;62.42
61628;BME280;55193;52.102;5.242;2022-07-29T07:50:21;101686.0;;;19.73;61.96
61628;BME280;55193;52.102;5.242;2022-07-29T07:52:08;101677.0;;;19.79;62.09
61628;BME280;55193;52.102;5.242;2022-07-29T07:55:41;101678.0;;;19.75;62.47
61628;BME280;55193;52.102;5.242;2022-07-29T07:57:29;101676.0;;;19.7;62.68
61628;BME280;55193;52.102;5.242;2022-07-29T07:59:15;101675.0;;;19.75;62.28
61628;BME280;55193;52.102;5.242;2022-07-29T08:01:03;101675.0;;;19.81;62.15
61628;BME280;55193;52.102;5.242;2022-07-29T08:02:50;101674.0;;;19.95;61.95
61628;BME280;55193;52.102;5.242;2022-07-29T08:04:36;101677.0;;;20.11;61.42
61628;BME280;55193;52.102;5.242;2022-07-29T08:08:11;101680.0;;;20.2;60.57
61628;BME280;55193;52.102;5.242;2022-07-29T08:09:57;101683.0;;;20.34;60.36
61628;BME280;55193;52.102;5.242;2022-07-29T08:11:43;101685.0;;;20.34;60.7
61628;BME280;55193;52.102;5.242;2022-07-29T08:13:30;101687.0;;;20.5;60.44
61628;BME280;55193;52.102;5.242;2022-07-29T08:15:16;101691.0;;;20.58;60.73
61628;BME280;55193;52.102;5.242;2022-07-29T08:17:03;101686.0;;;20.52;59.18
61628;BME280;55193;52.102;5.242;2022-07-29T08:20:35;101681.0;;;20.43;59.16
61628;BME280;55193;52.102;5.242;2022-07-29T08:22:23;101684.0;;;20.41;60.17
61628;BME280;55193;52.102;5.242;2022-07-29T08:25:13;101682.0;;;20.62;60.55
61628;BME280;55193;52.102;5.242;2022-07-29T08:26:59;101685.0;;;20.73;60.43
61628;BME280;55193;52.102;5.242;2022-07-29T08:28:46;101689.0;;;20.7;59.36
61628;BME280;55193;52.102;5.242;2022-07-29T08:30:33;101690.0;;;20.65;59.55
61628;BME280;55193;52.102;5.242;2022-07-29T08:32:20;101686.0;;;20.76;59.36
61628;BME280;55193;52.102;5.242;2022-07-29T08:34:09;101687.0;;;20.66;60.09
61628;BME280;55193;52.102;5.242;2022-07-29T08:35:55;101683.0;;;20.99;59.81
61628;BME280;55193;52.102;5.242;2022-07-29T08:39:28;101684.0;;;21.23;58.8
61628;BME280;55193;52.102;5.242;2022-07-29T08:41:15;101683.0;;;21.4;58.93
61628;BME280;55193;52.102;5.242;2022-07-29T08:43:05;101687.0;;;21.5;58.28
61628;BME280;55193;52.102;5.242;2022-07-29T08:44:54;101690.0;;;21.42;55.99
61628;BME280;55193;52.102;5.242;2022-07-29T08:46:41;101692.0;;;21.51;56.19
61628;BME280;55193;52.102;5.242;2022-07-29T08:48:29;101694.0;;;21.46;56.82
61628;BME280;55193;52.102;5.242;2022-07-29T08:52:02;101690.0;;;21.57;57.5
61628;BME280;55193;52.102;5.242;2022-07-29T08:53:49;101690.0;;;21.51;57.93
61628;BME280;55193;52.102;5.242;2022-07-29T08:55:38;101688.0;;;21.54;57.21
61628;BME280;55193;52.102;5.242;2022-07-29T08:57:26;101693.0;;;21.64;58.34
61628;BME280;55193;52.102;5.242;2022-07-29T08:59:13;101695.0;;;21.68;57.91
61628;BME280;55193;52.102;5.242;2022-07-29T09:01:02;101694.0;;;21.71;56.84
61628;BME280;55193;52.102;5.242;2022-07-29T09:04:42;101693.0;;;21.74;56.86
61628;BME280;55193;52.102;5.242;2022-07-29T09:06:32;101696.0;;;21.86;56.43
61628;BME280;55193;52.102;5.242;2022-07-29T09:08:23;101700.0;;;21.97;55.83
61628;BME280;55193;52.102;5.242;2022-07-29T09:10:10;101693.0;;;22.16;55.84
61628;BME280;55193;52.102;5.242;2022-07-29T09:11:58;101695.0;;;22.28;54.49
61628;BME280;55193;52.102;5.242;2022-07-29T09:13:46;101695.0;;;22.28;54.44
61628;BME280;55193;52.102;5.242;2022-07-29T09:17:39;101694.0;;;22.46;55.1
61628;BME280;55193;52.102;5.242;2022-07-29T09:19:28;101688.0;;;22.59;54.82
61628;BME280;55193;52.102;5.242;2022-07-29T09:22:28;101681.0;;;22.68;54.63
61628;BME280;55193;52.102;5.242;2022-07-29T09:24:16;101680.0;;;22.81;54.09
61628;BME280;55193;52.102;5.242;2022-07-29T09:27:51;101680.0;;;22.9;54.71
61628;BME280;55193;52.102;5.242;2022-07-29T09:29:38;101677.0;;;22.94;54.22
61628;BME280;55193;52.102;5.242;2022-07-29T09:31:32;101680.0;;;22.88;54.56
61628;BME280;55193;52.102;5.242;2022-07-29T09:33:20;101674.0;;;22.99;54.58
61628;BME280;55193;52.102;5.242;2022-07-29T09:35:17;101668.0;;;23.2;53.87
61628;BME280;55193;52.102;5.242;2022-07-29T09:37:05;101668.0;;;23.32;54.16
61628;BME280;55193;52.102;5.242;2022-07-29T09:38:57;101667.0;;;23.38;52.5
61628;BME280;55193;52.102;5.242;2022-07-29T09:40:55;101671.0;;;23.4;52.59
61628;BME280;55193;52.102;5.242;2022-07-29T09:44:46;101670.0;;;23.31;52.45
61628;BME280;55193;52.102;5.242;2022-07-29T09:46:34;101668.0;;;23.35;53.5
61628;BME280;55193;52.102;5.242;2022-07-29T09:48:24;101673.0;;;23.59;53.33
61628;BME280;55193;52.102;5.242;2022-07-29T09:50:10;101671.0;;;23.74;52.58
61628;BME280;55193;52.102;5.242;2022-07-29T09:52:00;101677.0;;;23.7;52.07
61628;BME280;55193;52.102;5.242;2022-07-29T09:53:50;101675.0;;;23.56;51.26
61628;BME280;55193;52.102;5.242;2022-07-29T09:55:52;101680.0;;;23.42;51.78
61628;BME280;55193;52.102;5.242;2022-07-29T09:57:39;101671.0;;;23.45;51.98
61628;BME280;55193;52.102;5.242;2022-07-29T10:01:12;101672.0;;;23.72;52.72
61628;BME280;55193;52.102;5.242;2022-07-29T10:03:01;101677.0;;;23.96;51.16
61628;BME280;55193;52.102;5.242;2022-07-29T10:04:47;101681.0;;;23.96;50.9
61628;BME280;55193;52.102;5.242;2022-07-29T10:06:34;101680.0;;;24.12;50.85
61628;BME280;55193;52.102;5.242;2022-07-29T10:08:41;101676.0;;;24.18;50.44
61628;BME280;55193;52.102;5.242;2022-07-29T10:10:29;101680.0;;;24.26;49.66
61628;BME280;55193;52.102;5.242;2022-07-29T10:12:18;101678.0;;;24.36;49.19
61628;BME280;55193;52.102;5.242;2022-07-29T10:15:51;101678.0;;;24.4;49.1
61628;BME280;55193;52.102;5.242;2022-07-29T10:17:39;101677.0;;;24.35;48.46
61628;BME280;55193;52.102;5.242;2022-07-29T10:19:28;101672.0;;;24.24;47.4
61628;BME280;55193;52.102;5.242;2022-07-29T10:21:15;101673.0;;;24.46;47.72
61628;BME280;55193;52.102;5.242;2022-07-29T10:23:02;101674.0;;;24.6;48.36
61628;BME280;55193;52.102;5.242;2022-07-29T10:24:50;101670.0;;;24.69;46.8
61628;BME280;55193;52.102;5.242;2022-07-29T10:28:29;101671.0;;;24.62;47.54
61628;BME280;55193;52.102;5.242;2022-07-29T10:30:17;101673.0;;;24.57;47.04
61628;BME280;55193;52.102;5.242;2022-07-29T10:32:15;101663.0;;;24.63;47.21
61628;BME280;55193;52.102;5.242;2022-07-29T10:34:12;101666.0;;;24.72;46.31
61628;BME280;55193;52.102;5.242;2022-07-29T10:36:15;101665.0;;;24.71;46.85
61628;BME280;55193;52.102;5.242;2022-07-29T10:38:24;101662.0;;;25.02;47.41
61628;BME280;55193;52.102;5.242;2022-07-29T10:41:56;101658.0;;;25.29;46.98
61628;BME280;55193;52.102;5.242;2022-07-29T10:43:59;101666.0;;;25.41;45.16
61628;BME280;55193;52.102;5.242;2022-07-29T10:45:47;101666.0;;;25.43;45.21
61628;BME280;55193;52.102;5.242;2022-07-29T10:49:23;101663.0;;;25.42;45.76
61628;BME280;55193;52.102;5.242;2022-07-29T10:51:11;101663.0;;;25.39;45.87
61628;BME280;55193;52.102;5.242;2022-07-29T10:52:58;101661.0;;;25.36;45.62
61628;BME280;55193;52.102;5.242;2022-07-29T10:54:48;101659.0;;;25.15;47.26
61628;BME280;55193;52.102;5.242;2022-07-29T10:56:36;101662.0;;;25.4;46.93
61628;BME280;55193;52.102;5.242;2022-07-29T10:58:23;101660.0;;;25.28;45.52
61628;BME280;55193;52.102;5.242;2022-07-29T11:02:50;101660.0;;;25.48;45.31
61628;BME280;55193;52.102;5.242;2022-07-29T11:05:09;101662.0;;;25.43;46.14
61628;BME280;55193;52.102;5.242;2022-07-29T11:07:09;101662.0;;;25.52;46.52
61628;BME280;55193;52.102;5.242;2022-07-29T11:09:15;101664.0;;;25.5;45.4
61628;BME280;55193;52.102;5.242;2022-07-29T11:11:31;101660.0;;;25.49;45.09
61628;BME280;55193;52.102;5.242;2022-07-29T11:13:55;101657.0;;;25.3;45.34